Time;durP1;ratioP1;P1;durP2;ratioP2;P2;SDS_P1;SDS_P2;PMS_P1;PMS_P2;Temp;Humidity;BMP_temperature;BMP_pressure;BME280_temperature;BME280_humidity;BME280_pressure;Samples;Min_cycle;Max_cycle;Signal;HPM_P1;HPM_P2
2021/08/05 00:01:59;;;;;;;;;;;;;;;14.48;100.00;100552.34;5044250;28;19933;-88
2021/08/05 00:04:26;;;;;;;;;;;;;;;14.43;100.00;100561.31;5043546;28;19932;-87
2021/08/05 00:06:55;;;;;;;;;;;;;;;14.35;100.00;100557.13;5067819;28;20276;-88
2021/08/05 00:09:21;;;;;;;;;;;;;;;14.30;100.00;100558.13;5057863;28;20019;-88
2021/08/05 00:11:48;;;;;;;;;;;;;;;14.23;100.00;100555.63;5060719;28;19928;-87
2021/08/05 00:14:17;;;;;;;;;;;;;;;14.18;100.00;100554.03;5057338;28;19928;-86
2021/08/05 00:16:44;;;;;;;;;;;;;;;14.15;100.00;100548.88;5049670;28;19928;-87
2021/08/05 00:19:10;;;;;;;;;;;;;;;14.12;100.00;100548.91;5059112;28;20007;-86
2021/08/05 00:21:37;;;;;;;;;;;;;;;14.10;100.00;100546.34;5054724;28;20746;-88
2021/08/05 00:24:05;;;;;;;;;;;;;;;14.08;100.00;100540.25;5064012;28;19977;-88
2021/08/05 00:26:33;;;;;;;;;;;;;;;14.08;100.00;100540.25;5058928;28;19928;-88
2021/08/05 00:29:00;;;;;;;;;;;;;;;14.07;100.00;100538.53;5062933;28;20367;-87
2021/08/05 00:31:28;;;;;;;;;;;;;;;14.05;100.00;100535.94;5058687;28;20032;-87
2021/08/05 00:33:55;;;;;;;;;;;;;;;14.02;100.00;100537.78;5060631;28;19947;-88
2021/08/05 00:36:24;;;;;;;;;;;;;;;14.00;100.00;100540.44;5052860;28;20521;-86
2021/08/05 00:38:51;;;;;;;;;;;;;;;13.98;100.00;100544.88;5062047;28;19963;-87
2021/08/05 00:41:19;;;;;;;;;;;;;;;13.94;100.00;100545.84;5045149;28;20013;-88
2021/08/05 00:43:45;;;;;;;;;;;;;;;13.89;100.00;100543.31;5047619;28;19928;-87
2021/08/05 00:46:12;;;;;;;;;;;;;;;13.85;100.00;100536.41;5040524;28;19933;-86
2021/08/05 00:48:40;;;;;;;;;;;;;;;13.84;100.00;100536.47;5043576;28;19924;-88
2021/08/05 00:51:06;;;;;;;;;;;;;;;13.84;100.00;100531.19;5054900;28;19925;-87
2021/08/05 00:53:39;;;;;;;;;;;;;;;13.81;100.00;100524.25;5040523;28;20390;-87
2021/08/05 00:56:09;;;;;;;;;;;;;;;13.79;100.00;100528.66;5055685;28;19981;-86
2021/08/05 00:58:35;;;;;;;;;;;;;;;13.79;100.00;100522.53;5055165;28;20298;-88
2021/08/05 01:01:11;;;;;;;;;;;;;;;13.77;100.00;100516.47;5035707;28;19977;-88
2021/08/05 01:03:42;;;;;;;;;;;;;;;13.77;100.00;100517.34;5021978;28;20006;-86
2021/08/05 01:06:23;;;;;;;;;;;;;;;13.73;100.00;100523.56;5042611;28;19955;-85
2021/08/05 01:09:03;;;;;;;;;;;;;;;13.69;100.00;100517.50;5037947;28;19925;-87
2021/08/05 01:11:36;;;;;;;;;;;;;;;13.68;100.00;100518.41;5027451;28;19935;-88
2021/08/05 01:14:05;;;;;;;;;;;;;;;13.69;100.00;100522.78;5050772;28;19938;-86
2021/08/05 01:16:41;;;;;;;;;;;;;;;13.73;100.00;100520.94;5040695;28;19933;-87
2021/08/05 01:19:45;;;;;;;;;;;;;;;13.71;100.00;100523.63;5031614;28;19932;-87
2021/08/05 01:22:18;;;;;;;;;;;;;;;13.68;100.00;100525.44;5054518;28;19933;-89
2021/08/05 01:24:55;;;;;;;;;;;;;;;13.66;100.00;100527.25;5050831;28;19974;-87
2021/08/05 01:27:22;;;;;;;;;;;;;;;13.66;100.00;100527.25;5011443;28;19947;-86
2021/08/05 01:29:49;;;;;;;;;;;;;;;13.67;100.00;100526.34;5034236;28;19933;-86
2021/08/05 01:32:17;;;;;;;;;;;;;;;13.69;100.00;100517.50;5014274;28;19925;-86
2021/08/05 01:34:45;;;;;;;;;;;;;;;13.68;100.00;100510.53;5017649;28;20023;-86
2021/08/05 01:37:12;;;;;;;;;;;;;;;13.71;100.00;100512.22;5013077;28;19932;-86
2021/08/05 01:39:40;;;;;;;;;;;;;;;13.72;100.00;100504.28;5017632;28;19935;-86
2021/08/05 01:42:07;;;;;;;;;;;;;;;13.72;100.00;100504.28;5026011;28;19928;-86
2021/08/05 01:44:34;;;;;;;;;;;;;;;13.73;100.00;100503.38;5029623;28;19929;-86
2021/08/05 01:47:03;;;;;;;;;;;;;;;13.75;100.00;100507.75;5014673;28;19932;-86
2021/08/05 01:49:29;;;;;;;;;;;;;;;13.76;100.00;100505.06;5020191;28;19940;-86
2021/08/05 01:51:56;;;;;;;;;;;;;;;13.78;100.00;100503.28;5030752;28;19932;-86
2021/08/05 01:54:22;;;;;;;;;;;;;;;13.81;100.00;100507.59;5027507;28;20931;-86
2021/08/05 01:56:49;;;;;;;;;;;;;;;13.84;100.00;100504.88;5033891;28;20666;-86
2021/08/05 01:59:15;;;;;;;;;;;;;;;13.86;100.00;100506.56;5014585;28;20186;-87
2021/08/05 02:01:42;;;;;;;;;;;;;;;13.86;100.00;100497.84;5022730;28;19939;-85
2021/08/05 02:04:45;;;;;;;;;;;;;;;13.88;100.00;100506.53;5015271;28;19941;-87
2021/08/05 02:07:16;;;;;;;;;;;;;;;13.87;100.00;100489.91;5032201;28;20487;-85
2021/08/05 02:10:07;;;;;;;;;;;;;;;13.87;100.00;100497.78;5046261;28;19932;-85
2021/08/05 02:12:40;;;;;;;;;;;;;;;13.87;100.00;100494.28;5041396;28;19928;-86
2021/08/05 02:15:07;;;;;;;;;;;;;;;13.87;100.00;100489.91;5010876;28;19928;-85
2021/08/05 02:17:37;;;;;;;;;;;;;;;13.87;100.00;100491.63;5032884;28;19939;-86
2021/08/05 02:20:06;;;;;;;;;;;;;;;13.92;100.00;100491.53;5023044;28;19933;-86
2021/08/05 02:22:33;;;;;;;;;;;;;;;13.93;100.00;100488.00;5023230;28;19979;-86
2021/08/05 02:25:00;;;;;;;;;;;;;;;13.93;100.00;100488.84;5045380;28;19928;-86
2021/08/05 02:27:27;;;;;;;;;;;;;;;13.95;100.00;100492.34;5020960;28;19932;-86
2021/08/05 02:29:54;;;;;;;;;;;;;;;13.95;100.00;100488.81;5021159;28;19945;-86
2021/08/05 02:32:25;;;;;;;;;;;;;;;13.95;100.00;100489.69;5011857;28;20294;-86
2021/08/05 02:34:53;;;;;;;;;;;;;;;13.98;100.00;100488.75;5025630;28;19973;-86
2021/08/05 02:37:19;;;;;;;;;;;;;;;13.99;100.00;100493.97;5006374;28;19932;-85
2021/08/05 02:39:48;;;;;;;;;;;;;;;14.02;100.00;100493.03;5045307;28;19928;-86
2021/08/05 02:42:18;;;;;;;;;;;;;;;14.04;100.00;100488.56;5010062;28;19932;-85
2021/08/05 02:44:45;;;;;;;;;;;;;;;14.04;100.00;100485.94;5029869;28;19928;-86
2021/08/05 02:47:12;;;;;;;;;;;;;;;14.07;100.00;100483.25;5012864;28;20446;-85
2021/08/05 02:49:41;;;;;;;;;;;;;;;14.08;100.00;100474.47;5016760;28;19986;-86
2021/08/05 02:52:10;;;;;;;;;;;;;;;14.09;100.00;100478.78;5007595;28;19935;-86
2021/08/05 02:54:37;;;;;;;;;;;;;;;14.13;100.00;100482.22;5026326;28;19924;-86
2021/08/05 02:57:06;;;;;;;;;;;;;;;14.13;100.00;100477.84;5024726;28;19933;-85
2021/08/05 02:59:33;;;;;;;;;;;;;;;14.13;100.00;100482.22;5011309;28;20273;-86
2021/08/05 03:02:03;;;;;;;;;;;;;;;14.11;100.00;100478.78;4989273;28;19928;-85
2021/08/05 03:04:34;;;;;;;;;;;;;;;14.08;100.00;100482.34;5023057;28;22980;-87
2021/08/05 03:07:08;;;;;;;;;;;;;;;14.06;100.00;100479.72;5015776;28;19928;-86
2021/08/05 03:09:34;;;;;;;;;;;;;;;14.06;100.00;100485.00;5019638;28;20382;-85
2021/08/05 03:12:01;;;;;;;;;;;;;;;14.06;100.00;100484.16;5023078;28;19939;-86
2021/08/05 03:14:33;;;;;;;;;;;;;;;14.05;100.00;100475.41;5032307;28;19963;-85
2021/08/05 03:17:00;;;;;;;;;;;;;;;14.05;100.00;100472.78;5018511;28;19932;-86
2021/08/05 03:19:27;;;;;;;;;;;;;;;14.06;100.00;100476.25;5029346;28;19925;-86
2021/08/05 03:21:53;;;;;;;;;;;;;;;14.06;100.00;100465.72;5013965;28;20383;-86
2021/08/05 03:24:20;;;;;;;;;;;;;;;14.07;100.00;100470.09;5012581;28;19936;-85
2021/08/05 03:26:46;;;;;;;;;;;;;;;14.07;100.00;100472.72;5017564;28;19939;-85
2021/08/05 03:29:13;;;;;;;;;;;;;;;14.08;100.00;100477.09;5009033;28;20449;-85
2021/08/05 03:31:39;;;;;;;;;;;;;;;14.11;100.00;100468.25;5033117;28;19933;-85
2021/08/05 03:34:06;;;;;;;;;;;;;;;14.13;100.00;100458.53;5019785;28;19935;-85
2021/08/05 03:36:32;;;;;;;;;;;;;;;14.15;100.00;100468.09;5012980;28;19932;-88
2021/08/05 03:38:59;;;;;;;;;;;;;;;14.17;100.00;100466.31;5009662;28;19937;-85
2021/08/05 03:41:25;;;;;;;;;;;;;;;14.21;100.00;100464.47;5031901;28;19968;-85
2021/08/05 03:43:52;;;;;;;;;;;;;;;14.25;100.00;100462.59;5011066;28;19954;-86
2021/08/05 03:46:18;;;;;;;;;;;;;;;14.29;100.00;100458.97;5043595;28;19933;-85
2021/08/05 03:48:44;;;;;;;;;;;;;;;14.30;100.00;100456.31;4994699;28;20434;-85
2021/08/05 03:51:11;;;;;;;;;;;;;;;14.33;100.00;100458.00;4994942;28;19968;-86
2021/08/05 03:53:37;;;;;;;;;;;;;;;14.35;100.00;100457.06;4996614;28;20374;-86
2021/08/05 03:56:04;;;;;;;;;;;;;;;14.38;100.00;100461.38;5006335;28;20451;-84
2021/08/05 03:58:30;;;;;;;;;;;;;;;14.41;100.00;100457.78;4990453;28;19933;-85
2021/08/05 04:00:57;;;;;;;;;;;;;;;14.41;100.00;100455.16;5001263;28;19932;-85
2021/08/05 04:03:23;;;;;;;;;;;;;;;14.41;100.00;100456.00;4986179;28;20441;-86
2021/08/05 04:05:50;;;;;;;;;;;;;;;14.41;100.00;100445.47;4999960;28;20010;-86
2021/08/05 04:08:17;;;;;;;;;;;;;;;14.42;100.00;100460.38;4994697;28;19933;-86
2021/08/05 04:10:44;;;;;;;;;;;;;;;14.40;100.00;100454.28;5025605;28;19991;-85
2021/08/05 04:13:12;;;;;;;;;;;;;;;14.42;100.00;100459.50;4988924;28;19944;-86
2021/08/05 04:15:48;;;;;;;;;;;;;;;;;;;;;
2021/08/05 04:18:15;;;;;;;;;;;;;;;14.43;100.00;100451.56;4987137;28;20031;-86
2021/08/05 04:20:43;;;;;;;;;;;;;;;14.45;100.00;100452.38;5009805;28;19934;-86
2021/08/05 04:23:23;;;;;;;;;;;;;;;14.44;100.00;100445.38;4998300;28;20416;-86
2021/08/05 04:25:56;;;;;;;;;;;;;;;14.42;100.00;100441.06;5023645;28;20406;-85
2021/08/05 04:28:25;;;;;;;;;;;;;;;14.42;100.00;100454.22;5001587;28;19995;-84
2021/08/05 04:30:52;;;;;;;;;;;;;;;14.42;100.00;100449.84;4993925;28;21665;-85
2021/08/05 04:33:19;;;;;;;;;;;;;;;14.43;100.00;100448.94;5011350;28;19996;-85
2021/08/05 04:35:46;;;;;;;;;;;;;;;14.45;100.00;100449.75;4999733;28;20163;-85
2021/08/05 04:38:15;;;;;;;;;;;;;;;14.48;100.00;100452.28;4987987;28;20017;-87
2021/08/05 04:40:42;;;;;;;;;;;;;;;14.52;100.00;100442.53;4995439;28;20505;-85
2021/08/05 04:43:11;;;;;;;;;;;;;;;14.55;100.00;100440.66;5010870;28;19955;-85
2021/08/05 04:45:41;;;;;;;;;;;;;;;14.59;100.00;100437.94;5026940;28;20431;-87
2021/08/05 04:48:11;;;;;;;;;;;;;;;14.63;100.00;100434.31;5015036;28;19968;-86
2021/08/05 04:50:43;;;;;;;;;;;;;;;14.64;100.00;100439.56;4993806;28;20621;-85
2021/08/05 04:53:12;;;;;;;;;;;;;;;14.68;100.00;100437.72;4991463;28;19960;-85
2021/08/05 04:55:39;;;;;;;;;;;;;;;14.70;100.00;100435.88;5011937;28;19995;-85
2021/08/05 04:58:12;;;;;;;;;;;;;;;14.73;100.00;100430.53;4986566;28;19940;-85
2021/08/05 05:00:41;;;;;;;;;;;;;;;14.76;100.00;100435.72;5009345;28;19955;-84
2021/08/05 05:03:09;;;;;;;;;;;;;;;14.79;100.00;100440.03;4986746;28;19933;-84
2021/08/05 05:05:36;;;;;;;;;;;;;;;14.80;100.00;100439.13;4994499;28;19956;-85
2021/08/05 05:08:23;;;;;;;;;;;;;;;14.84;100.00;100438.13;5008731;28;20387;-85
2021/08/05 05:10:55;;;;;;;;;;;;;;;14.87;100.00;100433.63;5004383;28;20301;-85
2021/08/05 05:13:21;;;;;;;;;;;;;;;14.91;100.00;100428.25;5005854;28;19925;-85
2021/08/05 05:15:50;;;;;;;;;;;;;;;14.94;100.00;100431.66;5003566;28;20260;-86
2021/08/05 05:18:20;;;;;;;;;;;;;;;14.98;100.00;100428.03;4996726;28;19929;-86
2021/08/05 05:20:50;;;;;;;;;;;;;;;15.01;100.00;100425.28;5006775;28;19936;-85
2021/08/05 05:23:20;;;;;;;;;;;;;;;15.02;100.00;100421.75;5004078;28;20372;-86
2021/08/05 05:25:51;;;;;;;;;;;;;;;15.03;100.00;100427.84;5001123;28;20399;-85
2021/08/05 05:28:20;;;;;;;;;;;;;;;15.01;100.00;100422.66;5008536;28;19936;-85
2021/08/05 05:30:47;;;;;;;;;;;;;;;15.03;100.00;100422.59;5009354;28;20451;-86
2021/08/05 05:33:14;;;;;;;;;;;;;;;15.06;100.00;100422.50;4986128;28;20050;-84
2021/08/05 05:35:40;;;;;;;;;;;;;;;15.08;100.00;100422.47;5008380;28;19936;-86
2021/08/05 05:38:11;;;;;;;;;;;;;;;15.09;100.00;100417.13;5009156;28;19939;-84
2021/08/05 05:40:40;;;;;;;;;;;;;;;15.11;100.00;100415.31;5008812;28;19934;-85
2021/08/05 05:43:08;;;;;;;;;;;;;;;15.13;100.00;100415.28;5004409;28;19926;-85
2021/08/05 05:45:36;;;;;;;;;;;;;;;15.13;100.00;100413.47;5015625;28;19933;-86
2021/08/05 05:48:08;;;;;;;;;;;;;;;15.15;100.00;100414.31;5032351;28;19941;-85
2021/08/05 05:50:35;;;;;;;;;;;;;;;15.19;100.00;100413.28;4994172;28;19929;-85
2021/08/05 05:53:01;;;;;;;;;;;;;;;15.25;100.00;100416.66;5011050;28;19952;-86
2021/08/05 05:55:28;;;;;;;;;;;;;;;15.29;99.92;100416.50;5008863;28;20036;-86
2021/08/05 05:57:55;;;;;;;;;;;;;;;15.33;99.89;100411.97;5009320;28;20022;-86
2021/08/05 06:00:21;;;;;;;;;;;;;;;15.36;99.75;100415.38;5008848;28;19929;-85
2021/08/05 06:02:48;;;;;;;;;;;;;;;15.39;99.33;100415.28;5003223;28;19933;-85
2021/08/05 06:05:14;;;;;;;;;;;;;;;15.42;99.30;100416.09;5010589;28;19936;-85
2021/08/05 06:07:49;;;;;;;;;;;;;;;15.46;98.89;100420.34;4987083;28;20384;-85
2021/08/05 06:10:17;;;;;;;;;;;;;;;15.50;99.04;100417.56;5012483;28;20346;-85
2021/08/05 06:12:43;;;;;;;;;;;;;;;15.54;98.71;100424.47;5004407;28;19933;-85
2021/08/05 06:15:11;;;;;;;;;;;;;;;15.55;98.45;100418.28;5009610;28;19968;-85
2021/08/05 06:17:37;;;;;;;;;;;;;;;15.59;98.45;100426.97;5011271;28;20396;-85
2021/08/05 06:20:07;;;;;;;;;;;;;;;15.64;98.12;100424.16;4987951;28;19929;-85
2021/08/05 06:22:34;;;;;;;;;;;;;;;15.67;97.75;100424.03;4997028;28;20016;-85
2021/08/05 06:25:00;;;;;;;;;;;;;;;15.76;97.92;100425.50;4990657;28;19933;-85
2021/08/05 06:27:27;;;;;;;;;;;;;;;15.82;97.22;100428.00;5008285;28;19951;-85
2021/08/05 06:29:54;;;;;;;;;;;;;;;15.85;97.16;100434.03;4993921;28;20339;-86
2021/08/05 06:32:20;;;;;;;;;;;;;;;15.91;96.81;100435.59;5003730;28;20055;-85
2021/08/05 06:34:46;;;;;;;;;;;;;;;15.97;96.52;100429.22;4995079;28;19935;-85
2021/08/05 06:37:13;;;;;;;;;;;;;;;16.03;96.27;100429.00;4992268;28;19925;-86
2021/08/05 06:39:39;;;;;;;;;;;;;;;16.09;96.21;100435.84;5010433;28;20031;-86
2021/08/05 06:42:09;;;;;;;;;;;;;;;16.14;95.90;100433.91;5006376;28;23290;-86
2021/08/05 06:44:37;;;;;;;;;;;;;;;16.19;95.59;100430.19;5011358;28;21924;-86
2021/08/05 06:47:05;;;;;;;;;;;;;;;16.24;95.35;100432.66;5001000;28;20383;-86
2021/08/05 06:49:32;;;;;;;;;;;;;;;16.27;94.58;100440.50;5027058;28;21549;-87
2021/08/05 06:51:59;;;;;;;;;;;;;;;16.22;94.61;100431.88;5028717;28;19997;-85
2021/08/05 06:54:25;;;;;;;;;;;;;;;16.17;94.21;100434.66;5015742;28;20461;-85
2021/08/05 06:56:52;;;;;;;;;;;;;;;16.16;94.80;100438.22;5012016;28;19929;-84
2021/08/05 06:59:19;;;;;;;;;;;;;;;16.17;94.07;100436.44;5029349;28;19944;-85
2021/08/05 07:01:46;;;;;;;;;;;;;;;16.20;94.47;100438.97;5014028;28;19939;-85
2021/08/05 07:04:12;;;;;;;;;;;;;;;16.24;94.53;100437.09;5018040;28;20031;-85
2021/08/05 07:06:39;;;;;;;;;;;;;;;16.25;94.03;100434.38;5014111;28;20027;-85
2021/08/05 07:09:09;;;;;;;;;;;;;;;16.29;94.44;100435.16;5032525;28;21229;-85
2021/08/05 07:11:38;;;;;;;;;;;;;;;16.34;94.44;100436.69;5010805;28;19941;-86
2021/08/05 07:14:05;;;;;;;;;;;;;;;16.39;94.06;100436.53;5017049;28;19932;-85
2021/08/05 07:16:32;;;;;;;;;;;;;;;16.42;94.06;100436.41;5020086;28;19932;-85
2021/08/05 07:18:58;;;;;;;;;;;;;;;16.42;93.99;100436.41;5010467;28;19972;-85
2021/08/05 07:21:27;;;;;;;;;;;;;;;16.40;93.94;100435.63;5019370;28;19955;-85
2021/08/05 07:23:54;;;;;;;;;;;;;;;16.40;94.19;100435.63;5032200;28;19934;-85
2021/08/05 07:26:22;;;;;;;;;;;;;;;16.44;94.24;100446.91;5031540;28;19933;-85
2021/08/05 07:28:52;;;;;;;;;;;;;;;16.49;94.33;100437.03;5014984;28;19935;-84
2021/08/05 07:31:19;;;;;;;;;;;;;;;16.56;94.26;100437.66;5022628;28;20047;-85
2021/08/05 07:33:48;;;;;;;;;;;;;;;16.60;93.39;100434.03;5017473;28;20035;-85
2021/08/05 07:36:15;;;;;;;;;;;;;;;16.59;92.97;100440.22;5008220;28;19997;-85
2021/08/05 07:38:42;;;;;;;;;;;;;;;16.61;93.46;100441.88;5014492;28;19979;-85
2021/08/05 07:41:09;;;;;;;;;;;;;;;16.63;93.71;100444.47;5023921;28;20375;-84
2021/08/05 07:43:35;;;;;;;;;;;;;;;16.66;93.58;100439.94;5035349;28;20387;-85
2021/08/05 07:46:05;;;;;;;;;;;;;;;16.74;93.63;100437.00;5032082;28;19939;-86
2021/08/05 07:48:32;;;;;;;;;;;;;;;16.83;93.35;100438.41;5012801;28;19939;-85
2021/08/05 07:51:00;;;;;;;;;;;;;;;16.91;92.25;100441.69;5033925;28;21271;-85
2021/08/05 07:53:27;;;;;;;;;;;;;;;16.93;91.26;100436.31;5013091;28;19925;-85
2021/08/05 07:55:54;;;;;;;;;;;;;;;16.93;91.43;100433.69;5018040;28;19931;-85
2021/08/05 07:58:20;;;;;;;;;;;;;;;16.95;91.42;100432.69;5029288;28;19940;-85
2021/08/05 08:00:50;;;;;;;;;;;;;;;17.03;91.55;100437.69;5026864;28;19929;-85
2021/08/05 08:03:16;;;;;;;;;;;;;;;17.09;91.33;100437.44;5018043;28;19932;-84
2021/08/05 08:05:44;;;;;;;;;;;;;;;17.14;90.61;100438.13;5030019;28;19932;-85
2021/08/05 08:08:16;;;;;;;;;;;;;;;17.22;90.55;100435.16;5019124;28;19929;-84
2021/08/05 08:10:44;;;;;;;;;;;;;;;17.35;90.34;100435.53;5006480;28;19974;-84
2021/08/05 08:13:10;;;;;;;;;;;;;;;17.42;89.61;100431.72;5028291;28;19986;-87
2021/08/05 08:15:37;;;;;;;;;;;;;;;17.50;89.58;100436.69;5030877;28;20310;-85
2021/08/05 08:18:04;;;;;;;;;;;;;;;17.62;87.49;100437.97;5030948;28;20382;-84
2021/08/05 08:20:31;;;;;;;;;;;;;;;17.68;87.74;100433.28;5014312;28;19932;-84
2021/08/05 08:22:58;;;;;;;;;;;;;;;17.76;88.30;100432.94;5024900;28;19932;-85
2021/08/05 08:25:25;;;;;;;;;;;;;;;17.86;87.77;100433.44;5024039;28;19929;-86
2021/08/05 08:27:51;;;;;;;;;;;;;;;18.01;87.22;100438.06;5030105;28;19933;-86
2021/08/05 08:30:20;;;;;;;;;;;;;;;18.16;86.26;100436.56;5022636;28;19924;-86
2021/08/05 08:32:47;;;;;;;;;;;;;;;18.28;86.13;100432.50;5013357;28;19929;-86
2021/08/05 08:35:20;;;;;;;;;;;;;;;18.39;85.87;100429.34;5005135;28;19956;-86
2021/08/05 08:37:47;;;;;;;;;;;;;;;18.46;85.04;100421.97;5033279;28;19966;-87
2021/08/05 08:40:15;;;;;;;;;;;;;;;18.49;83.49;100422.72;5036346;28;20039;-87
2021/08/05 08:42:42;;;;;;;;;;;;;;;18.56;83.47;100422.44;5015817;28;20480;-86
2021/08/05 08:47:56;;;;;;;;;;;;;;;18.85;82.85;100419.28;5031606;28;19929;-86
2021/08/05 08:50:32;;;;;;;;;;;;;;;19.07;81.84;100420.09;5025115;28;19937;-87
2021/08/05 08:53:04;;;;;;;;;;;;;;;19.23;80.85;100414.88;5014415;28;19993;-86
2021/08/05 08:55:32;;;;;;;;;;;;;;;19.39;80.77;100417.66;5029940;28;20058;-87
2021/08/05 08:58:04;;;;;;;;;;;;;;;19.52;78.70;100416.09;5025757;28;20384;-87
2021/08/05 09:00:37;;;;;;;;;;;;;;;19.69;79.64;100417.91;5034173;28;19928;-85
2021/08/05 09:03:11;;;;;;;;;;;;;;;19.82;78.00;100413.72;5020610;28;19928;-86
2021/08/05 09:05:37;;;;;;;;;;;;;;;20.02;77.22;100416.28;5023689;28;19939;-86
2021/08/05 09:08:04;;;;;;;;;;;;;;;20.26;76.28;100412.31;5033335;28;19964;-85
2021/08/05 09:10:32;;;;;;;;;;;;;;;20.40;75.51;100408.06;5014202;28;19929;-87
2021/08/05 09:13:13;;;;;;;;;;;;;;;20.52;74.92;100407.41;5034404;28;19980;-87
2021/08/05 09:15:46;;;;;;;;;;;;;;;20.68;74.99;100404.75;5012556;28;21587;-85
2021/08/05 09:18:40;;;;;;;;;;;;;;;20.92;74.53;100402.53;5036037;28;22532;-87
2021/08/05 09:21:25;;;;;;;;;;;;;;;21.29;70.71;100402.28;5018253;28;20394;-85
2021/08/05 09:24:09;;;;;;;;;;;;;;;21.56;71.59;100401.63;5021983;28;19929;-85
2021/08/05 09:26:44;;;;;;;;;;;;;;;21.75;69.97;100401.41;5034968;28;19932;-88
2021/08/05 09:29:13;;;;;;;;;;;;;;;21.85;66.66;100401.69;5020447;28;20007;-85
2021/08/05 09:31:53;;;;;;;;;;;;;;;22.26;68.24;100395.66;5031298;28;19955;-86
2021/08/05 09:34:34;;;;;;;;;;;;;;;22.51;65.40;100394.97;5033195;28;20378;-86
2021/08/05 09:37:13;;;;;;;;;;;;;;;22.31;66.83;100396.22;5021716;28;19935;-86
2021/08/05 09:39:47;;;;;;;;;;;;;;;22.25;67.07;100396.59;5030666;28;19999;-85
2021/08/05 09:42:23;;;;;;;;;;;;;;;22.16;66.40;100394.50;5033419;28;19938;-85
2021/08/05 09:44:56;;;;;;;;;;;;;;;22.12;66.91;100389.38;5050633;28;19933;-85
2021/08/05 09:47:25;;;;;;;;;;;;;;;22.12;65.91;100388.50;5008966;28;19936;-85
2021/08/05 09:49:57;;;;;;;;;;;;;;;22.07;67.42;100388.78;5021253;28;19970;-86
2021/08/05 09:52:35;;;;;;;;;;;;;;;21.95;67.50;100382.41;5013962;28;19939;-86
2021/08/05 09:55:05;;;;;;;;;;;;;;;21.84;67.74;100384.84;5035178;28;20035;-86
2021/08/05 09:57:37;;;;;;;;;;;;;;;21.64;68.30;100386.91;5027164;28;20399;-86
2021/08/05 10:00:03;;;;;;;;;;;;;;;21.37;69.41;100383.16;5018603;28;20067;-86
2021/08/05 10:02:51;;;;;;;;;;;;;;;21.18;69.08;100381.59;5038992;28;19929;-86
2021/08/05 10:05:21;;;;;;;;;;;;;;;21.04;70.35;100378.84;5032744;28;20078;-86
2021/08/05 10:07:56;;;;;;;;;;;;;;;20.97;70.83;100376.53;5032986;28;20326;-86
2021/08/05 10:10:26;;;;;;;;;;;;;;;20.88;71.26;100379.72;5017135;28;19932;-85
2021/08/05 10:12:55;;;;;;;;;;;;;;;20.92;70.93;100370.63;5022039;28;20010;-86
2021/08/05 10:15:24;;;;;;;;;;;;;;;20.85;70.00;100377.25;5023261;28;19939;-85
2021/08/05 10:17:52;;;;;;;;;;;;;;;20.81;70.88;100373.91;5015925;28;19939;-86
2021/08/05 10:20:20;;;;;;;;;;;;;;;20.86;71.96;100364.78;5032617;28;20010;-87
2021/08/05 10:22:51;;;;;;;;;;;;;;;21.05;72.30;100373.44;5032891;28;20039;-87
2021/08/05 10:25:21;;;;;;;;;;;;;;;21.26;72.43;100370.50;5037168;28;19933;-85
2021/08/05 10:27:48;;;;;;;;;;;;;;;21.46;71.70;100370.19;5027118;28;19936;-85
2021/08/05 10:30:17;;;;;;;;;;;;;;;21.52;71.25;100370.78;5029624;28;20302;-85
2021/08/05 10:32:45;;;;;;;;;;;;;;;21.50;71.43;100362.88;5027075;28;19936;-85
2021/08/05 10:35:13;;;;;;;;;;;;;;;21.44;71.34;100360.56;5018701;28;20164;-86
2021/08/05 10:37:40;;;;;;;;;;;;;;;21.38;71.94;100363.59;5014778;28;19924;-85
2021/08/05 10:40:11;;;;;;;;;;;;;;;21.38;72.41;100364.47;5006848;28;19986;-86
2021/08/05 10:42:38;;;;;;;;;;;;;;;21.32;72.76;100360.34;5018374;28;19928;-86
2021/08/05 10:45:05;;;;;;;;;;;;;;;21.39;72.90;100360.81;5022168;28;19936;-86
2021/08/05 10:47:32;;;;;;;;;;;;;;;21.54;73.44;100350.25;5026768;28;19932;-85
2021/08/05 10:50:05;;;;;;;;;;;;;;;21.74;73.23;100351.72;5016901;28;19933;-86
2021/08/05 10:52:37;;;;;;;;;;;;;;;21.93;73.07;100344.31;5017726;28;20022;-85
2021/08/05 10:55:23;;;;;;;;;;;;;;;22.10;72.02;100345.09;5046522;28;19977;-87
2021/08/05 10:58:08;;;;;;;;;;;;;;;22.35;70.74;100338.22;5026169;28;19932;-88
2021/08/05 11:00:51;;;;;;;;;;;;;;;22.61;69.10;100339.25;5032370;28;20019;-87
2021/08/05 11:03:32;;;;;;;;;;;;;;;22.89;67.24;100334.75;5030209;28;20631;-87
2021/08/05 11:06:00;;;;;;;;;;;;;;;23.24;65.63;100329.78;5053355;28;20406;-88
2021/08/05 11:08:28;;;;;;;;;;;;;;;23.68;64.99;100333.03;5011725;28;20609;-87
2021/08/05 11:11:23;;;;;;;;;;;;;;;24.09;62.25;100325.78;5034127;28;19974;-85
2021/08/05 11:13:55;;;;;;;;;;;;;;;25.21;57.39;100324.78;5047073;28;19933;-85
2021/08/05 11:16:59;;;;;;;;;;;;;;;26.17;53.15;100319.25;5032487;28;20028;-87
2021/08/05 11:19:31;;;;;;;;;;;;;;;27.42;51.08;100311.69;5026593;28;19933;-86
2021/08/05 11:21:57;;;;;;;;;;;;;;;28.32;48.19;100312.84;5031845;28;19932;-85
2021/08/05 11:24:42;;;;;;;;;;;;;;;29.05;44.93;100304.44;5031691;28;21401;-86
2021/08/05 11:27:21;;;;;;;;;;;;;;;30.57;43.30;100305.41;5025284;28;19924;-85
2021/08/05 11:29:51;;;;;;;;;;;;;;;32.53;40.15;100309.66;5032048;28;20340;-86
2021/08/05 11:32:25;;;;;;;;;;;;;;;33.94;37.63;100303.19;5023847;28;19932;-86
2021/08/05 11:34:56;;;;;;;;;;;;;;;34.58;32.97;100296.78;5029178;28;20326;-85
2021/08/05 11:37:23;;;;;;;;;;;;;;;34.46;32.32;100288.19;5022617;28;19977;-86
2021/08/05 11:40:00;;;;;;;;;;;;;;;33.92;37.46;100288.09;5011032;28;20429;-86
2021/08/05 11:42:30;;;;;;;;;;;;;;;33.92;35.17;100285.38;5011347;28;19929;-86
2021/08/05 11:44:59;;;;;;;;;;;;;;;33.80;34.40;100282.19;5004447;28;19932;-85
2021/08/05 11:47:35;;;;;;;;;;;;;;;33.26;35.64;100280.06;5041240;28;20074;-85
2021/08/05 11:50:06;;;;;;;;;;;;;;;33.16;34.69;100269.41;5001232;28;20060;-85
2021/08/05 11:52:42;;;;;;;;;;;;;;;32.51;37.14;100273.72;5025915;28;20040;-86
2021/08/05 11:55:20;;;;;;;;;;;;;;;32.44;36.87;100267.31;4982200;28;19939;-87
2021/08/05 11:58:05;;;;;;;;;;;;;;;32.72;35.48;100269.69;4993158;28;19926;-87
2021/08/05 12:00:35;;;;;;;;;;;;;;;32.57;36.81;100261.41;4993283;28;19976;-85
2021/08/05 12:03:16;;;;;;;;;;;;;;;32.25;36.29;100265.72;4991966;28;20447;-86
2021/08/05 12:05:44;;;;;;;;;;;;;;;31.37;38.86;100262.22;5002474;28;19940;-86
2021/08/05 12:08:12;;;;;;;;;;;;;;;31.43;39.26;100256.19;4980293;28;19951;-86
2021/08/05 12:10:43;;;;;;;;;;;;;;;32.25;37.30;100241.34;5008546;28;19934;-85
2021/08/05 12:13:18;;;;;;;;;;;;;;;33.89;35.02;100234.16;5001561;28;20390;-87
2021/08/05 12:15:51;;;;;;;;;;;;;;;35.24;31.83;100228.28;4992177;28;19929;-86
2021/08/05 12:18:24;;;;;;;;;;;;;;;35.70;30.59;100234.59;5023678;28;19958;-86
2021/08/05 12:20:56;;;;;;;;;;;;;;;35.36;32.56;100238.72;4987044;28;20441;-86
2021/08/05 12:23:29;;;;;;;;;;;;;;;35.46;31.87;100233.00;4988984;28;19933;-85
2021/08/05 12:26:06;;;;;;;;;;;;;;;34.65;32.95;100220.78;5001753;28;19936;-86
2021/08/05 12:28:52;;;;;;;;;;;;;;;33.86;32.68;100218.19;5015768;28;20298;-85
2021/08/05 12:31:24;;;;;;;;;;;;;;;33.04;34.80;100217.38;5005797;28;20465;-88
2021/08/05 12:36:36;;;;;;;;;;;;;;;32.80;34.10;100212.81;4992356;28;20018;-87
2021/08/05 12:39:08;;;;;;;;;;;;;;;33.21;34.13;100214.66;5009827;28;19934;-86
2021/08/05 12:41:59;;;;;;;;;;;;;;;33.58;32.76;100215.91;5007686;28;19976;-88
2021/08/05 12:44:33;;;;;;;;;;;;;;;33.61;31.94;100212.84;5008446;28;20285;-87
2021/08/05 12:47:08;;;;;;;;;;;;;;;34.26;31.44;100198.13;5032111;28;20882;-87
2021/08/05 12:49:37;;;;;;;;;;;;;;;35.75;29.45;100204.94;5031059;28;19935;-87
2021/08/05 12:52:05;;;;;;;;;;;;;;;36.91;27.59;100193.19;5019327;28;20035;-88
2021/08/05 12:54:32;;;;;;;;;;;;;;;37.62;24.23;100200.34;5013626;28;19954;-87